Airfield :
LOGIN :

Register | Disclaimer

   EN    FR    IT 

 










Legend :    VFR   Marginal VFR   IFR   Intensive IFR   Very Intensive IFR
Visi :
Ceiling :
>= 8 km
>= 3000ft
5 to 8 km
1000 to 3000 ft
1500m to 5 km
500 to 1000 ft
800 to 1500m
200 to 500 ft
< 800m
< 200 ft
Symbols :   Thunderstorms  Fog  Heavy snow  Heavy precipitations  Wind > 20 kt
SIGMETs :     Misc.  Thunderstorms  Icing  Turbulence  Mountain Waves  Volcanic Ashes






- Airport Elevation : 100 ft


EBDT - Schaffen

CURRENT METAR :
  • 271755Z AUTO 16007KT 9999 -RA BKN037/// OVC066/// 07/05 Q1013 BLU

EXPIRED METARs :
  • 271725Z AUTO 16008KT 9999 -RA BKN036/// OVC066/// 07/05 Q1013 BLU
  • 271655Z AUTO 16009KT 9999 -RA OVC039/// 07/05 Q1014 BLU
  • 271625Z AUTO 16009KT 9999 -RA SCT032/// BKN060/// OVC093/// 07/05 Q1014 BLU
  • 271555Z AUTO 16008KT 9999 -RA OVC034/// 07/05 Q1015 BLU
  • 271525Z AUTO 16007KT 9999 -RA BKN032/// OVC045/// 07/05 Q1015 BLU

Expired Forecast.



MET'MAP, your aeronautical weather chart ! - Copyright ORBIFLY December 2007 - Disclaimer

ORBIFLY MET'MAP TEAM :

Programming & Development : Alexandra Zaïnal
Original concept : Baudouin d'Aumeries
Technical & hardware support : Manuel Goepfert
Assistance : Marc-Olivier Méhu




SOURCES & CREDITS :

   NOAA